Red Bluff Municipal Airport
KRBL : rendu visible

Aérodrome :











RETROUVEZ-NOUS SUR...

 
LOGIN :

S'inscrire | Disclaimer

   EN    FR    IT 

 









Légende :    VFR   VFR Marginal   IFR   IFR Intensif   IFR Très Intensif
Visi : 
Plafond : 
>= 8 km
>= 3000ft
5 à 8 km
1000 à 3000 ft
1500m à 5 km
500 à 1000 ft
800 à 1500m
200 à 500 ft
< 800m
< 200 ft
Symboles :   Orages  Brouillard  Fortes neiges  Fortes précipitations  Vent > 20 kt






- Altitude de l'aérodrome : 352 ft


KRBL - Red Bluff Municipal

DERNIER METAR :
  • 201654Z AUTO 35020G28KT 10SM CLR 17/M03 A2970 RMK AO2 PK WND 34030/1643 SLP055 T01721028

METARs EXPIRÉS :
  • 201554Z AUTO 34012G19KT 10SM CLR 16/M02 A2971 RMK AO2 SLP059 T01561017
  • 201454Z AUTO 33013G20KT 10SM CLR 14/M01 A2970 RMK AO2 SLP055 T01391011 53004

TAF KRBL
Valide du 20 à 12h jusqu'au 21 à 12h UTC


201126Z 2012/2112 33015G24KT P6SM SKC
FM201400 35022G30KT P6SM SKC
FM201600 35025G35KT P6SM SKC
FM210300 36019G28KT P6SM SKC
FM210900 34013KT P6SM SKC



MET'MAP, la Météo Aéronautique d'un coup d'oeil ! - Copyright ORBIFLY Décembre 2007 - Disclaimer

ORBIFLY MET'MAP TEAM :

Programmation & Développement : Alexandra Zaïnal
Conception & Développement : Baudouin d'Aumeries
Co-Programmation & Développement : Marc-Olivier Méhu
Soutien technique & logistique : Manuel Goepfert

Contact : metmap@orbifly.com




SOURCES & CREDITS :

   NOAA       Earth
Advisory